createdAt,value
2022-08-11T00:04:37.968Z,101118.63
2022-08-11T00:09:42.197Z,101109.56
2022-08-11T00:14:45.742Z,101105.69
2022-08-11T00:20:11.787Z,101112.84
2022-08-11T00:25:16.737Z,101115.41
2022-08-11T00:30:19.679Z,101119.91
2022-08-11T00:35:51.587Z,101121.69
2022-08-11T00:40:56.767Z,101121.53
2022-08-11T00:46:11.879Z,101116.88
2022-08-11T00:51:18.790Z,101130.97
2022-08-11T00:56:49.856Z,101106.81
2022-08-11T01:02:07.036Z,101117.56
2022-08-11T01:08:00.433Z,101119.88
2022-08-11T01:13:11.103Z,101105.50
2022-08-11T01:18:55.589Z,101124.91
2022-08-11T01:24:37.276Z,101116.75
2022-08-11T01:30:08.746Z,101103.22
2022-08-11T01:35:32.333Z,101110.56
2022-08-11T01:40:57.534Z,101103.09
2022-08-11T01:46:03.520Z,101102.31
2022-08-11T01:51:21.635Z,101111.75
2022-08-11T01:56:34.321Z,101114.59
2022-08-11T02:01:50.634Z,101109.03
2022-08-11T02:07:02.612Z,101118.00
2022-08-11T02:12:17.781Z,101111.53
2022-08-11T02:17:22.149Z,101116.00
2022-08-11T02:22:50.421Z,101112.84
2022-08-11T02:27:56.997Z,101105.00
2022-08-11T02:33:20.158Z,101108.84
2022-08-11T02:38:30.710Z,101098.72
2022-08-11T02:43:47.295Z,101122.63
2022-08-11T02:49:45.715Z,101107.44
2022-08-11T02:55:48.735Z,101110.91
2022-08-11T03:00:53.597Z,101118.78
2022-08-11T03:06:06.927Z,101119.47
2022-08-11T03:11:33.104Z,101123.63
2022-08-11T03:16:48.337Z,101114.84
2022-08-11T03:22:02.949Z,101124.56
2022-08-11T03:27:10.967Z,101129.88
2022-08-11T03:32:25.974Z,101134.25
2022-08-11T03:37:52.789Z,101121.19
2022-08-11T03:42:59.564Z,101120.06
2022-08-11T03:48:10.518Z,101121.16
2022-08-11T03:53:18.482Z,101111.47
2022-08-11T03:58:38.224Z,101117.28
2022-08-11T04:04:00.718Z,101113.06
2022-08-11T04:09:25.125Z,101116.25
2022-08-11T04:15:04.165Z,101112.31
2022-08-11T04:20:31.231Z,101116.22
2022-08-11T04:25:51.064Z,101107.56
2022-08-11T04:31:12.251Z,101112.84
2022-08-11T04:36:50.662Z,101105.25
2022-08-11T04:42:50.974Z,101106.72
2022-08-11T04:48:25.596Z,101108.72
2022-08-11T04:53:54.845Z,101111.09
2022-08-11T04:59:56.755Z,101111.66
2022-08-11T05:05:34.592Z,101108.84
2022-08-11T05:10:53.153Z,101110.91
2022-08-11T05:16:15.050Z,101109.44
2022-08-11T05:21:45.121Z,101118.56
2022-08-11T05:27:12.903Z,101116.69
2022-08-11T05:32:35.202Z,101125.97
2022-08-11T05:37:58.085Z,101119.13
2022-08-11T05:43:21.288Z,101116.75
2022-08-11T05:48:41.984Z,101119.47
2022-08-11T05:54:28.705Z,101110.69
2022-08-11T05:59:30.792Z,101116.41
2022-08-11T06:04:33.888Z,101122.84
2022-08-11T06:09:39.438Z,101121.31
2022-08-11T06:14:44.326Z,101123.31
2022-08-11T06:19:48.910Z,101110.97
2022-08-11T06:24:56.310Z,101122.78
2022-08-11T06:29:59.875Z,101115.72
2022-08-11T06:35:13.160Z,101114.25
2022-08-11T06:40:28.364Z,101104.56
2022-08-11T06:45:34.429Z,101110.97
2022-08-11T06:50:55.247Z,101104.09
2022-08-11T06:56:17.573Z,101114.88
2022-08-11T07:01:33.004Z,101115.09
2022-08-11T07:07:09.103Z,101117.84
2022-08-11T07:12:57.736Z,101113.50
2022-08-11T07:18:22.308Z,101110.91
2022-08-11T07:23:48.346Z,101100.38
2022-08-11T07:28:59.098Z,101102.22
2022-08-11T07:34:12.208Z,101098.81
2022-08-11T07:39:22.000Z,101092.56
2022-08-11T07:44:34.414Z,101111.50
2022-08-11T07:49:57.145Z,101097.16
2022-08-11T07:55:01.507Z,101100.75
2022-08-11T08:00:29.864Z,101105.25
2022-08-11T08:05:52.019Z,101100.78
2022-08-11T08:11:14.024Z,101103.44
2022-08-11T08:16:35.725Z,101120.47
2022-08-11T08:21:39.831Z,101100.63
2022-08-11T08:26:59.541Z,101105.97
2022-08-11T08:32:04.021Z,101102.22
2022-08-11T08:37:16.215Z,101093.13
2022-08-11T08:42:32.059Z,101100.22
2022-08-11T08:47:42.881Z,101103.84
2022-08-11T08:52:50.596Z,101099.22
2022-08-11T08:57:55.670Z,101092.50
2022-08-11T09:03:08.482Z,101096.22
2022-08-11T09:08:21.661Z,101103.38
2022-08-11T09:13:24.356Z,101081.91
2022-08-11T09:18:33.532Z,101077.25
2022-08-11T09:24:17.066Z,101087.44
2022-08-11T09:29:17.952Z,101080.81
2022-08-11T09:34:22.636Z,101078.13
2022-08-11T09:39:43.696Z,101075.44
2022-08-11T09:44:50.036Z,101092.16
2022-08-11T09:50:00.447Z,101062.16
2022-08-11T09:55:11.116Z,101082.97
2022-08-11T10:00:15.903Z,101068.81
2022-08-11T10:05:43.267Z,101069.31
2022-08-11T10:10:46.985Z,101067.84
2022-08-11T10:16:00.058Z,101058.34
2022-08-11T10:21:28.180Z,101051.59
2022-08-11T10:26:54.155Z,101045.06
2022-08-11T10:32:15.694Z,101043.19
2022-08-11T10:37:22.155Z,101037.91
2022-08-11T10:42:57.103Z,101035.88
2022-08-11T10:48:01.095Z,101029.81
2022-08-11T10:53:22.997Z,101035.78
2022-08-11T10:58:43.429Z,101026.06
2022-08-11T11:03:46.751Z,101027.06
2022-08-11T11:08:55.526Z,101020.84
2022-08-11T11:14:20.860Z,101027.56
2022-08-11T11:19:30.379Z,101016.56
2022-08-11T11:24:43.739Z,101016.53
2022-08-11T11:29:55.987Z,101018.16
2022-08-11T11:35:28.043Z,100991.34
2022-08-11T11:40:32.417Z,100996.16
2022-08-11T11:45:35.648Z,100994.88
2022-08-11T11:50:39.258Z,100986.19
2022-08-11T11:55:43.763Z,100988.81
2022-08-11T12:01:04.409Z,101007.09
2022-08-11T12:06:08.789Z,100977.69
2022-08-11T12:11:31.087Z,100996.69
2022-08-11T12:16:36.781Z,100957.59
2022-08-11T12:22:02.945Z,100962.13
2022-08-11T12:27:25.221Z,100959.88
2022-08-11T12:32:30.366Z,100938.16
2022-08-11T12:37:34.829Z,100940.94
2022-08-11T12:42:57.653Z,100935.38
2022-08-11T12:48:59.078Z,100923.69
2022-08-11T12:53:55.260Z,100937.28
2022-08-11T12:59:17.887Z,100919.72
2022-08-11T13:04:38.624Z,100914.38
2022-08-11T13:09:41.974Z,100906.59
2022-08-11T13:14:46.207Z,100909.94
2022-08-11T13:19:49.795Z,100902.25
2022-08-11T13:24:55.208Z,100897.75
2022-08-11T13:30:13.865Z,100883.03
2022-08-11T13:35:17.239Z,100890.41
2022-08-11T13:40:33.316Z,100883.41
2022-08-11T13:45:47.571Z,100875.06
2022-08-11T13:51:07.647Z,100881.16
2022-08-11T13:56:10.466Z,100873.50
2022-08-11T14:02:20.730Z,100868.09
2022-08-11T14:06:38.737Z,100850.78
2022-08-11T14:12:21.150Z,100844.41
2022-08-11T14:17:48.385Z,100844.88
2022-08-11T14:22:47.858Z,100833.38
2022-08-11T14:28:35.230Z,100828.53
2022-08-11T14:33:17.290Z,100828.16
2022-08-11T14:38:23.407Z,100827.38
2022-08-11T14:44:12.532Z,100818.78
2022-08-11T14:49:08.549Z,100818.88
2022-08-11T14:54:29.406Z,100817.63
2022-08-11T14:59:33.558Z,100810.31
2022-08-11T15:04:38.140Z,100813.97
2022-08-11T15:10:09.870Z,100809.53
2022-08-11T15:15:25.575Z,100802.06
2022-08-11T15:20:48.204Z,100800.75
2022-08-11T15:25:58.995Z,100786.78
2022-08-11T15:31:20.718Z,100776.00
2022-08-11T15:36:42.814Z,100772.28
2022-08-11T15:42:07.986Z,100778.19
2022-08-11T15:47:10.743Z,100777.78
2022-08-11T15:52:19.384Z,100764.13
2022-08-11T15:57:39.779Z,100757.03
2022-08-11T16:03:01.898Z,100755.19
2022-08-11T16:08:06.336Z,100754.34
2022-08-11T16:13:29.861Z,100745.50
2022-08-11T16:18:41.487Z,100737.00
2022-08-11T16:23:48.142Z,100729.00
2022-08-11T16:28:52.354Z,100731.72
2022-08-11T16:33:55.688Z,100733.06
2022-08-11T16:39:00.702Z,100737.00
2022-08-11T16:44:36.810Z,100731.88
2022-08-11T16:49:47.200Z,100719.13
2022-08-11T16:54:56.963Z,100719.00
2022-08-11T17:00:06.158Z,100722.34
2022-08-11T17:05:29.615Z,100742.63
2022-08-11T17:11:00.190Z,100713.09
2022-08-11T17:16:12.546Z,100717.53
2022-08-11T17:21:19.984Z,100710.78
2022-08-11T17:26:51.465Z,100710.25
2022-08-11T17:32:13.141Z,100708.75
2022-08-11T17:37:17.109Z,100706.00
2022-08-11T17:42:39.432Z,100703.53
2022-08-11T17:47:59.796Z,100707.50
2022-08-11T17:53:20.639Z,100732.13
2022-08-11T17:58:43.334Z,100710.53
2022-08-11T18:03:57.309Z,100715.31
2022-08-11T18:09:20.298Z,100710.31
2022-08-11T18:14:42.494Z,100714.34
2022-08-11T18:20:02.852Z,100712.66
2022-08-11T18:25:29.874Z,100709.59
2022-08-11T18:31:03.975Z,100715.31
2022-08-11T18:36:26.138Z,100725.72
2022-08-11T18:41:47.884Z,100723.22
2022-08-11T18:47:09.867Z,100734.44
2022-08-11T18:52:33.065Z,100737.41
2022-08-11T18:57:55.184Z,100732.47
2022-08-11T19:03:16.817Z,100738.19
2022-08-11T19:08:37.894Z,100739.31
2022-08-11T19:13:58.273Z,100745.03
2022-08-11T19:19:20.358Z,100757.03
2022-08-11T19:24:41.261Z,100756.56
2022-08-11T19:30:13.230Z,100760.25
2022-08-11T19:35:36.298Z,100764.00
2022-08-11T19:40:57.550Z,100767.03
2022-08-11T19:46:19.369Z,100769.75
2022-08-11T19:51:42.465Z,100780.69
2022-08-11T19:57:03.280Z,100770.13
2022-08-11T20:02:24.109Z,100763.00
2022-08-11T20:07:46.578Z,100769.34
2022-08-11T20:13:07.337Z,100765.03
2022-08-11T20:18:29.816Z,100760.66
2022-08-11T20:23:51.741Z,100771.50
2022-08-11T20:29:13.362Z,100781.72
2022-08-11T20:34:36.271Z,100785.44
2022-08-11T20:39:59.025Z,100771.97
2022-08-11T20:45:23.586Z,100783.81
2022-08-11T20:50:45.987Z,100779.44
2022-08-11T20:56:08.267Z,100772.41
2022-08-11T21:01:38.934Z,100773.41
2022-08-11T21:07:02.077Z,100773.50
2022-08-11T21:12:24.537Z,100774.47
2022-08-11T21:18:00.624Z,100774.56
2022-08-11T21:23:29.435Z,100774.59
2022-08-11T21:28:52.359Z,100778.25
2022-08-11T21:34:13.213Z,100782.78
2022-08-11T21:39:36.327Z,100784.75
2022-08-11T21:44:58.202Z,100790.19
2022-08-11T21:50:18.346Z,100778.66
2022-08-11T21:55:38.948Z,100779.53
2022-08-11T22:01:00.956Z,100808.22
2022-08-11T22:06:21.512Z,100794.78
2022-08-11T22:11:41.927Z,100789.38
2022-08-11T22:17:03.197Z,100791.28
2022-08-11T22:22:35.305Z,100792.25
2022-08-11T22:28:04.495Z,100792.25
2022-08-11T22:33:28.851Z,100794.09
2022-08-11T22:38:50.243Z,100800.44
2022-08-11T22:44:10.353Z,100793.28
2022-08-11T22:49:56.982Z,100790.66
2022-08-11T22:55:13.775Z,100793.38
2022-08-11T23:00:34.893Z,100800.56
2022-08-11T23:05:56.904Z,100810.41
2022-08-11T23:11:17.056Z,100795.16
2022-08-11T23:16:37.422Z,100795.19
2022-08-11T23:21:59.405Z,100794.31
2022-08-11T23:27:21.116Z,100797.00
2022-08-11T23:32:42.603Z,100798.78
2022-08-11T23:38:04.296Z,100781.78
2022-08-11T23:43:24.525Z,100790.72
2022-08-11T23:48:46.657Z,100788.97
2022-08-11T23:54:08.837Z,100790.72
2022-08-11T23:59:29.378Z,100779.94
